sensor_id;sensor_type;location;lat;lon;timestamp;temperature;humidity
21335;DHT22;69435;52.670;13.544;2023-08-01T00:02:41;20.30;66.50
21335;DHT22;69435;52.670;13.544;2023-08-01T00:05:28;20.30;66.20
21335;DHT22;69435;52.670;13.544;2023-08-01T00:08:14;20.20;66.30
21335;DHT22;69435;52.670;13.544;2023-08-01T00:11:00;20.30;66.60
21335;DHT22;69435;52.670;13.544;2023-08-01T00:13:46;20.20;66.80
21335;DHT22;69435;52.670;13.544;2023-08-01T00:16:32;20.20;66.90
21335;DHT22;69435;52.670;13.544;2023-08-01T00:19:18;20.20;67.00
21335;DHT22;69435;52.670;13.544;2023-08-01T00:22:04;20.20;67.20
21335;DHT22;69435;52.670;13.544;2023-08-01T00:24:50;20.10;67.60
21335;DHT22;69435;52.670;13.544;2023-08-01T00:27:36;20.10;67.90
21335;DHT22;69435;52.670;13.544;2023-08-01T00:30:22;20.00;68.00
21335;DHT22;69435;52.670;13.544;2023-08-01T00:33:08;20.00;68.20
21335;DHT22;69435;52.670;13.544;2023-08-01T00:35:54;20.00;68.60
21335;DHT22;69435;52.670;13.544;2023-08-01T00:38:40;20.00;68.80
21335;DHT22;69435;52.670;13.544;2023-08-01T00:41:28;19.90;69.20
21335;DHT22;69435;52.670;13.544;2023-08-01T00:44:14;19.90;69.40
21335;DHT22;69435;52.670;13.544;2023-08-01T00:47:00;19.80;69.40
21335;DHT22;69435;52.670;13.544;2023-08-01T00:49:46;19.80;69.70
21335;DHT22;69435;52.670;13.544;2023-08-01T00:52:33;19.80;69.80
21335;DHT22;69435;52.670;13.544;2023-08-01T00:55:19;19.80;70.00
21335;DHT22;69435;52.670;13.544;2023-08-01T00:58:07;19.80;70.20
21335;DHT22;69435;52.670;13.544;2023-08-01T01:00:53;19.70;71.30
21335;DHT22;69435;52.670;13.544;2023-08-01T01:03:39;19.70;70.90
21335;DHT22;69435;52.670;13.544;2023-08-01T01:06:37;19.60;71.00
21335;DHT22;69435;52.670;13.544;2023-08-01T01:09:29;19.60;70.90
21335;DHT22;69435;52.670;13.544;2023-08-01T01:12:17;19.60;71.10
21335;DHT22;69435;52.670;13.544;2023-08-01T01:15:03;19.60;71.20
21335;DHT22;69435;52.670;13.544;2023-08-01T01:17:51;19.60;71.20
21335;DHT22;69435;52.670;13.544;2023-08-01T01:20:39;19.60;71.50
21335;DHT22;69435;52.670;13.544;2023-08-01T01:23:25;19.60;71.60
21335;DHT22;69435;52.670;13.544;2023-08-01T01:26:13;19.60;71.80
21335;DHT22;69435;52.670;13.544;2023-08-01T01:29:06;19.60;71.70
21335;DHT22;69435;52.670;13.544;2023-08-01T01:31:55;19.50;71.70
21335;DHT22;69435;52.670;13.544;2023-08-01T01:34:41;19.50;71.70
21335;DHT22;69435;52.670;13.544;2023-08-01T01:37:27;19.40;71.80
21335;DHT22;69435;52.670;13.544;2023-08-01T01:40:13;19.40;71.80
21335;DHT22;69435;52.670;13.544;2023-08-01T01:43:00;19.40;71.80
21335;DHT22;69435;52.670;13.544;2023-08-01T01:45:46;19.50;71.90
21335;DHT22;69435;52.670;13.544;2023-08-01T01:48:32;19.50;71.90
21335;DHT22;69435;52.670;13.544;2023-08-01T01:51:21;19.40;71.90
21335;DHT22;69435;52.670;13.544;2023-08-01T01:54:07;19.50;72.10
21335;DHT22;69435;52.670;13.544;2023-08-01T01:56:53;19.50;72.00
21335;DHT22;69435;52.670;13.544;2023-08-01T01:59:41;19.50;72.10
21335;DHT22;69435;52.670;13.544;2023-08-01T02:02:27;19.50;72.20
21335;DHT22;69435;52.670;13.544;2023-08-01T02:05:13;19.50;72.20
21335;DHT22;69435;52.670;13.544;2023-08-01T02:07:59;19.40;72.30
21335;DHT22;69435;52.670;13.544;2023-08-01T02:10:45;19.50;72.40
21335;DHT22;69435;52.670;13.544;2023-08-01T02:13:32;19.50;72.50
21335;DHT22;69435;52.670;13.544;2023-08-01T02:16:19;19.50;72.40
21335;DHT22;69435;52.670;13.544;2023-08-01T02:19:05;19.50;72.40
21335;DHT22;69435;52.670;13.544;2023-08-01T02:21:52;19.50;72.40
21335;DHT22;69435;52.670;13.544;2023-08-01T02:24:38;19.50;72.30
21335;DHT22;69435;52.670;13.544;2023-08-01T02:27:24;19.50;72.30
21335;DHT22;69435;52.670;13.544;2023-08-01T02:30:11;19.50;72.20
21335;DHT22;69435;52.670;13.544;2023-08-01T02:32:57;19.60;72.20
21335;DHT22;69435;52.670;13.544;2023-08-01T02:35:43;19.50;72.40
21335;DHT22;69435;52.670;13.544;2023-08-01T02:38:28;19.50;72.40
21335;DHT22;69435;52.670;13.544;2023-08-01T02:41:14;19.50;72.40
21335;DHT22;69435;52.670;13.544;2023-08-01T02:44:00;19.40;72.40
21335;DHT22;69435;52.670;13.544;2023-08-01T02:46:46;19.50;72.60
21335;DHT22;69435;52.670;13.544;2023-08-01T02:49:32;19.50;72.70
21335;DHT22;69435;52.670;13.544;2023-08-01T02:52:18;19.40;72.70
21335;DHT22;69435;52.670;13.544;2023-08-01T02:55:05;19.50;72.80
21335;DHT22;69435;52.670;13.544;2023-08-01T02:57:51;19.50;72.80
21335;DHT22;69435;52.670;13.544;2023-08-01T03:00:40;19.50;72.60
21335;DHT22;69435;52.670;13.544;2023-08-01T03:03:26;19.60;72.50
21335;DHT22;69435;52.670;13.544;2023-08-01T03:06:12;19.60;72.50
21335;DHT22;69435;52.670;13.544;2023-08-01T03:08:58;19.60;72.40
21335;DHT22;69435;52.670;13.544;2023-08-01T03:11:44;19.50;72.40
21335;DHT22;69435;52.670;13.544;2023-08-01T03:14:30;19.50;72.40
21335;DHT22;69435;52.670;13.544;2023-08-01T03:17:17;19.60;72.40
21335;DHT22;69435;52.670;13.544;2023-08-01T03:20:04;19.60;72.40
21335;DHT22;69435;52.670;13.544;2023-08-01T03:22:51;19.60;72.40
21335;DHT22;69435;52.670;13.544;2023-08-01T03:25:37;19.60;72.30
21335;DHT22;69435;52.670;13.544;2023-08-01T03:28:23;19.60;72.10
21335;DHT22;69435;52.670;13.544;2023-08-01T03:31:10;19.60;72.10
21335;DHT22;69435;52.670;13.544;2023-08-01T03:33:56;19.60;72.00
21335;DHT22;69435;52.670;13.544;2023-08-01T03:36:44;19.60;72.00
21335;DHT22;69435;52.670;13.544;2023-08-01T03:39:30;19.60;71.90
21335;DHT22;69435;52.670;13.544;2023-08-01T03:42:16;19.60;71.80
21335;DHT22;69435;52.670;13.544;2023-08-01T03:45:02;19.60;71.80
21335;DHT22;69435;52.670;13.544;2023-08-01T03:47:48;19.60;71.80
21335;DHT22;69435;52.670;13.544;2023-08-01T03:50:34;19.60;72.40
21335;DHT22;69435;52.670;13.544;2023-08-01T03:53:21;19.60;71.50
21335;DHT22;69435;52.670;13.544;2023-08-01T03:56:07;19.60;71.40
21335;DHT22;69435;52.670;13.544;2023-08-01T03:58:53;19.70;71.50
21335;DHT22;69435;52.670;13.544;2023-08-01T04:01:39;19.70;71.40
21335;DHT22;69435;52.670;13.544;2023-08-01T04:04:27;19.80;71.20
21335;DHT22;69435;52.670;13.544;2023-08-01T04:07:13;19.80;71.10
21335;DHT22;69435;52.670;13.544;2023-08-01T04:09:59;19.80;71.00
21335;DHT22;69435;52.670;13.544;2023-08-01T04:12:45;19.80;71.10
21335;DHT22;69435;52.670;13.544;2023-08-01T04:15:31;19.80;71.10
21335;DHT22;69435;52.670;13.544;2023-08-01T04:18:17;19.90;71.10
21335;DHT22;69435;52.670;13.544;2023-08-01T04:21:03;19.90;71.10
21335;DHT22;69435;52.670;13.544;2023-08-01T04:23:49;19.90;71.60
21335;DHT22;69435;52.670;13.544;2023-08-01T04:26:35;20.00;70.70
21335;DHT22;69435;52.670;13.544;2023-08-01T04:29:22;20.00;70.70
21335;DHT22;69435;52.670;13.544;2023-08-01T04:32:08;20.10;70.60
21335;DHT22;69435;52.670;13.544;2023-08-01T04:34:56;20.20;70.20
21335;DHT22;69435;52.670;13.544;2023-08-01T04:37:42;20.20;69.90
21335;DHT22;69435;52.670;13.544;2023-08-01T04:40:28;20.20;69.60
21335;DHT22;69435;52.670;13.544;2023-08-01T04:43:14;20.20;69.20
21335;DHT22;69435;52.670;13.544;2023-08-01T04:46:00;20.30;69.40
21335;DHT22;69435;52.670;13.544;2023-08-01T04:48:46;20.40;69.40
21335;DHT22;69435;52.670;13.544;2023-08-01T04:51:32;20.30;69.00
21335;DHT22;69435;52.670;13.544;2023-08-01T04:54:18;20.40;69.10
21335;DHT22;69435;52.670;13.544;2023-08-01T04:57:05;20.40;69.10
21335;DHT22;69435;52.670;13.544;2023-08-01T04:59:51;20.40;69.10
21335;DHT22;69435;52.670;13.544;2023-08-01T05:02:37;20.40;68.80
21335;DHT22;69435;52.670;13.544;2023-08-01T05:05:23;20.40;68.80
21335;DHT22;69435;52.670;13.544;2023-08-01T05:08:09;20.40;68.70
21335;DHT22;69435;52.670;13.544;2023-08-01T05:10:55;20.40;68.50
21335;DHT22;69435;52.670;13.544;2023-08-01T05:13:41;20.40;68.40
21335;DHT22;69435;52.670;13.544;2023-08-01T05:16:27;20.40;68.50
21335;DHT22;69435;52.670;13.544;2023-08-01T05:19:13;20.40;68.50
21335;DHT22;69435;52.670;13.544;2023-08-01T05:21:59;20.40;68.50
21335;DHT22;69435;52.670;13.544;2023-08-01T05:24:45;20.40;68.40
21335;DHT22;69435;52.670;13.544;2023-08-01T05:27:31;20.40;68.20
21335;DHT22;69435;52.670;13.544;2023-08-01T05:30:19;20.40;68.20
21335;DHT22;69435;52.670;13.544;2023-08-01T05:33:05;20.50;68.30
21335;DHT22;69435;52.670;13.544;2023-08-01T05:35:51;20.50;68.20
21335;DHT22;69435;52.670;13.544;2023-08-01T05:38:37;20.60;68.10
21335;DHT22;69435;52.670;13.544;2023-08-01T05:41:23;20.60;67.90
21335;DHT22;69435;52.670;13.544;2023-08-01T05:44:09;20.60;68.00
21335;DHT22;69435;52.670;13.544;2023-08-01T05:46:55;20.70;68.00
21335;DHT22;69435;52.670;13.544;2023-08-01T05:49:41;20.70;67.80
21335;DHT22;69435;52.670;13.544;2023-08-01T05:52:27;20.70;67.70
21335;DHT22;69435;52.670;13.544;2023-08-01T05:55:13;20.70;67.80
21335;DHT22;69435;52.670;13.544;2023-08-01T05:57:59;20.70;67.90
21335;DHT22;69435;52.670;13.544;2023-08-01T06:00:45;20.80;67.90
21335;DHT22;69435;52.670;13.544;2023-08-01T06:03:31;20.80;67.70
21335;DHT22;69435;52.670;13.544;2023-08-01T06:06:17;20.90;67.80
21335;DHT22;69435;52.670;13.544;2023-08-01T06:09:04;21.00;67.50
21335;DHT22;69435;52.670;13.544;2023-08-01T06:11:50;21.00;67.00
21335;DHT22;69435;52.670;13.544;2023-08-01T06:14:36;21.00;66.70
21335;DHT22;69435;52.670;13.544;2023-08-01T06:17:22;21.00;66.60
21335;DHT22;69435;52.670;13.544;2023-08-01T06:20:09;21.00;67.00
21335;DHT22;69435;52.670;13.544;2023-08-01T06:22:55;21.00;67.50
21335;DHT22;69435;52.670;13.544;2023-08-01T06:25:41;21.00;66.70
21335;DHT22;69435;52.670;13.544;2023-08-01T06:28:27;21.00;66.80
21335;DHT22;69435;52.670;13.544;2023-08-01T06:31:13;21.10;66.70
21335;DHT22;69435;52.670;13.544;2023-08-01T06:33:59;21.10;66.80
21335;DHT22;69435;52.670;13.544;2023-08-01T06:36:45;21.10;66.70
21335;DHT22;69435;52.670;13.544;2023-08-01T06:39:31;21.10;66.40
21335;DHT22;69435;52.670;13.544;2023-08-01T06:42:17;21.10;66.30
21335;DHT22;69435;52.670;13.544;2023-08-01T06:45:04;21.20;66.40
21335;DHT22;69435;52.670;13.544;2023-08-01T06:47:51;21.20;66.20
21335;DHT22;69435;52.670;13.544;2023-08-01T06:50:37;21.20;66.10
21335;DHT22;69435;52.670;13.544;2023-08-01T06:53:23;21.30;66.20
21335;DHT22;69435;52.670;13.544;2023-08-01T06:56:09;21.30;66.00
21335;DHT22;69435;52.670;13.544;2023-08-01T06:58:55;21.30;66.10
21335;DHT22;69435;52.670;13.544;2023-08-01T07:01:41;21.40;66.50
21335;DHT22;69435;52.670;13.544;2023-08-01T07:04:29;21.40;65.50
21335;DHT22;69435;52.670;13.544;2023-08-01T07:07:15;21.30;65.70
21335;DHT22;69435;52.670;13.544;2023-08-01T07:10:01;21.30;66.00
21335;DHT22;69435;52.670;13.544;2023-08-01T07:12:47;21.20;65.70
21335;DHT22;69435;52.670;13.544;2023-08-01T07:15:33;21.30;65.90
21335;DHT22;69435;52.670;13.544;2023-08-01T07:18:20;21.20;65.90
21335;DHT22;69435;52.670;13.544;2023-08-01T07:21:06;21.20;65.70
21335;DHT22;69435;52.670;13.544;2023-08-01T07:23:52;21.30;65.80
21335;DHT22;69435;52.670;13.544;2023-08-01T07:26:38;21.40;65.90
21335;DHT22;69435;52.670;13.544;2023-08-01T07:29:24;21.50;65.70
21335;DHT22;69435;52.670;13.544;2023-08-01T07:32:10;21.50;65.40
21335;DHT22;69435;52.670;13.544;2023-08-01T07:34:57;21.60;64.80
21335;DHT22;69435;52.670;13.544;2023-08-01T07:37:43;21.70;65.00
21335;DHT22;69435;52.670;13.544;2023-08-01T07:40:29;21.80;65.00
21335;DHT22;69435;52.670;13.544;2023-08-01T07:43:15;21.90;64.40
21335;DHT22;69435;52.670;13.544;2023-08-01T07:46:02;22.10;64.20
21335;DHT22;69435;52.670;13.544;2023-08-01T07:48:48;22.20;63.20
21335;DHT22;69435;52.670;13.544;2023-08-01T07:51:34;22.40;63.20
21335;DHT22;69435;52.670;13.544;2023-08-01T07:54:23;22.50;63.60
21335;DHT22;69435;52.670;13.544;2023-08-01T07:57:09;22.70;61.90
21335;DHT22;69435;52.670;13.544;2023-08-01T07:59:57;22.90;61.40
21335;DHT22;69435;52.670;13.544;2023-08-01T08:02:45;22.90;60.30
21335;DHT22;69435;52.670;13.544;2023-08-01T08:05:33;23.00;61.40
21335;DHT22;69435;52.670;13.544;2023-08-01T08:08:20;23.10;60.40
21335;DHT22;69435;52.670;13.544;2023-08-01T08:11:06;23.20;60.90
21335;DHT22;69435;52.670;13.544;2023-08-01T08:13:52;23.40;60.50
21335;DHT22;69435;52.670;13.544;2023-08-01T08:16:38;23.60;60.10
21335;DHT22;69435;52.670;13.544;2023-08-01T08:19:24;23.70;59.00
21335;DHT22;69435;52.670;13.544;2023-08-01T08:22:11;23.90;59.00
21335;DHT22;69435;52.670;13.544;2023-08-01T08:24:57;24.10;58.70
21335;DHT22;69435;52.670;13.544;2023-08-01T08:27:43;24.40;58.30
21335;DHT22;69435;52.670;13.544;2023-08-01T08:30:29;24.60;57.10
21335;DHT22;69435;52.670;13.544;2023-08-01T08:33:19;24.70;56.60
21335;DHT22;69435;52.670;13.544;2023-08-01T08:36:07;24.80;55.80
21335;DHT22;69435;52.670;13.544;2023-08-01T08:38:53;24.70;54.70
21335;DHT22;69435;52.670;13.544;2023-08-01T08:41:46;24.50;54.70
21335;DHT22;69435;52.670;13.544;2023-08-01T08:44:42;24.40;56.20
21335;DHT22;69435;52.670;13.544;2023-08-01T08:47:31;24.30;56.30
21335;DHT22;69435;52.670;13.544;2023-08-01T08:50:22;24.20;56.90
21335;DHT22;69435;52.670;13.544;2023-08-01T08:53:10;24.20;56.90
21335;DHT22;69435;52.670;13.544;2023-08-01T08:56:00;24.20;57.40
21335;DHT22;69435;52.670;13.544;2023-08-01T08:58:47;24.30;58.50
21335;DHT22;69435;52.670;13.544;2023-08-01T09:01:34;24.50;57.60
21335;DHT22;69435;52.670;13.544;2023-08-01T09:04:20;24.80;56.10
21335;DHT22;69435;52.670;13.544;2023-08-01T09:07:09;25.00;55.60
21335;DHT22;69435;52.670;13.544;2023-08-01T09:09:56;25.20;54.70
21335;DHT22;69435;52.670;13.544;2023-08-01T09:12:43;25.20;53.90
21335;DHT22;69435;52.670;13.544;2023-08-01T09:15:29;25.20;54.00
21335;DHT22;69435;52.670;13.544;2023-08-01T09:18:16;25.20;53.60
21335;DHT22;69435;52.670;13.544;2023-08-01T09:21:02;25.10;54.10
21335;DHT22;69435;52.670;13.544;2023-08-01T09:23:49;25.10;53.70
21335;DHT22;69435;52.670;13.544;2023-08-01T09:26:36;25.00;53.80
21335;DHT22;69435;52.670;13.544;2023-08-01T09:29:22;24.90;54.30
21335;DHT22;69435;52.670;13.544;2023-08-01T09:32:13;25.20;54.70
21335;DHT22;69435;52.670;13.544;2023-08-01T09:34:59;25.40;54.10
21335;DHT22;69435;52.670;13.544;2023-08-01T09:37:45;25.80;53.70
21335;DHT22;69435;52.670;13.544;2023-08-01T09:40:38;26.10;52.00
21335;DHT22;69435;52.670;13.544;2023-08-01T09:43:33;26.40;51.00
21335;DHT22;69435;52.670;13.544;2023-08-01T09:46:23;26.50;50.20
21335;DHT22;69435;52.670;13.544;2023-08-01T09:49:11;26.70;51.20
21335;DHT22;69435;52.670;13.544;2023-08-01T09:51:58;26.90;49.30
21335;DHT22;69435;52.670;13.544;2023-08-01T09:54:44;27.00;48.40
21335;DHT22;69435;52.670;13.544;2023-08-01T09:57:31;26.90;47.80
21335;DHT22;69435;52.670;13.544;2023-08-01T10:00:19;26.60;49.00
21335;DHT22;69435;52.670;13.544;2023-08-01T10:03:05;26.30;50.40
21335;DHT22;69435;52.670;13.544;2023-08-01T10:05:51;25.80;51.10
21335;DHT22;69435;52.670;13.544;2023-08-01T10:08:39;25.30;51.90
21335;DHT22;69435;52.670;13.544;2023-08-01T10:11:26;25.00;52.60
21335;DHT22;69435;52.670;13.544;2023-08-01T10:14:16;24.80;53.30
21335;DHT22;69435;52.670;13.544;2023-08-01T10:17:03;24.70;53.90
21335;DHT22;69435;52.670;13.544;2023-08-01T10:19:49;24.70;54.30
21335;DHT22;69435;52.670;13.544;2023-08-01T10:22:37;24.80;53.30
21335;DHT22;69435;52.670;13.544;2023-08-01T10:25:25;24.80;52.80
21335;DHT22;69435;52.670;13.544;2023-08-01T10:28:14;24.80;52.00
21335;DHT22;69435;52.670;13.544;2023-08-01T10:31:20;24.70;52.80
21335;DHT22;69435;52.670;13.544;2023-08-01T10:34:13;24.60;53.00
21335;DHT22;69435;52.670;13.544;2023-08-01T10:36:59;24.50;53.50
21335;DHT22;69435;52.670;13.544;2023-08-01T10:39:59;24.50;53.90
21335;DHT22;69435;52.670;13.544;2023-08-01T10:42:47;24.50;53.80
21335;DHT22;69435;52.670;13.544;2023-08-01T10:45:33;24.30;55.20
21335;DHT22;69435;52.670;13.544;2023-08-01T10:48:19;24.10;55.60
21335;DHT22;69435;52.670;13.544;2023-08-01T10:51:05;23.80;55.80
21335;DHT22;69435;52.670;13.544;2023-08-01T10:53:52;23.40;57.00
21335;DHT22;69435;52.670;13.544;2023-08-01T10:56:38;23.30;58.40
21335;DHT22;69435;52.670;13.544;2023-08-01T10:59:24;23.10;59.70
21335;DHT22;69435;52.670;13.544;2023-08-01T11:02:10;22.80;61.20
21335;DHT22;69435;52.670;13.544;2023-08-01T11:05:05;22.50;62.70
21335;DHT22;69435;52.670;13.544;2023-08-01T11:08:00;22.30;64.20
21335;DHT22;69435;52.670;13.544;2023-08-01T11:10:49;22.10;65.10
21335;DHT22;69435;52.670;13.544;2023-08-01T11:13:36;22.00;65.40
21335;DHT22;69435;52.670;13.544;2023-08-01T11:16:22;21.90;65.70
21335;DHT22;69435;52.670;13.544;2023-08-01T11:19:24;21.70;66.40
21335;DHT22;69435;52.670;13.544;2023-08-01T11:22:11;21.60;66.60
21335;DHT22;69435;52.670;13.544;2023-08-01T11:24:58;21.50;67.10
21335;DHT22;69435;52.670;13.544;2023-08-01T11:27:44;21.50;67.40
21335;DHT22;69435;52.670;13.544;2023-08-01T11:30:32;21.50;67.20
21335;DHT22;69435;52.670;13.544;2023-08-01T11:33:19;21.60;66.50
21335;DHT22;69435;52.670;13.544;2023-08-01T11:36:08;21.60;65.50
21335;DHT22;69435;52.670;13.544;2023-08-01T11:38:59;21.70;63.70
21335;DHT22;69435;52.670;13.544;2023-08-01T11:41:46;21.70;63.80
21335;DHT22;69435;52.670;13.544;2023-08-01T11:44:32;21.80;63.50
21335;DHT22;69435;52.670;13.544;2023-08-01T11:47:18;22.00;63.10
21335;DHT22;69435;52.670;13.544;2023-08-01T11:50:05;22.30;63.20
21335;DHT22;69435;52.670;13.544;2023-08-01T11:52:52;22.50;62.80
21335;DHT22;69435;52.670;13.544;2023-08-01T11:55:38;22.70;62.20
21335;DHT22;69435;52.670;13.544;2023-08-01T11:58:32;22.90;60.60
21335;DHT22;69435;52.670;13.544;2023-08-01T12:01:21;23.10;58.60
21335;DHT22;69435;52.670;13.544;2023-08-01T12:04:07;23.10;59.20
21335;DHT22;69435;52.670;13.544;2023-08-01T12:06:54;23.30;58.50
21335;DHT22;69435;52.670;13.544;2023-08-01T12:09:41;23.40;59.10
21335;DHT22;69435;52.670;13.544;2023-08-01T12:12:28;23.60;56.70
21335;DHT22;69435;52.670;13.544;2023-08-01T12:15:14;23.70;57.30
21335;DHT22;69435;52.670;13.544;2023-08-01T12:18:01;23.90;56.80
21335;DHT22;69435;52.670;13.544;2023-08-01T12:20:47;24.10;56.70
21335;DHT22;69435;52.670;13.544;2023-08-01T12:23:33;24.30;54.80
21335;DHT22;69435;52.670;13.544;2023-08-01T12:26:19;24.40;55.30
21335;DHT22;69435;52.670;13.544;2023-08-01T12:29:05;24.40;55.10
21335;DHT22;69435;52.670;13.544;2023-08-01T12:31:52;24.60;54.20
21335;DHT22;69435;52.670;13.544;2023-08-01T12:34:38;24.70;53.90
21335;DHT22;69435;52.670;13.544;2023-08-01T12:37:24;24.70;53.00
21335;DHT22;69435;52.670;13.544;2023-08-01T12:40:10;24.70;51.60
21335;DHT22;69435;52.670;13.544;2023-08-01T12:42:57;24.70;53.00
21335;DHT22;69435;52.670;13.544;2023-08-01T12:45:43;24.70;51.20
21335;DHT22;69435;52.670;13.544;2023-08-01T12:48:31;24.60;51.20
21335;DHT22;69435;52.670;13.544;2023-08-01T12:51:17;24.60;52.10
21335;DHT22;69435;52.670;13.544;2023-08-01T12:54:03;24.60;52.20
21335;DHT22;69435;52.670;13.544;2023-08-01T12:56:49;24.70;52.20
21335;DHT22;69435;52.670;13.544;2023-08-01T12:59:35;24.80;53.10
21335;DHT22;69435;52.670;13.544;2023-08-01T13:02:21;25.00;51.50
21335;DHT22;69435;52.670;13.544;2023-08-01T13:05:07;25.00;51.70
21335;DHT22;69435;52.670;13.544;2023-08-01T13:07:53;24.90;51.40
21335;DHT22;69435;52.670;13.544;2023-08-01T13:10:39;24.80;51.30
21335;DHT22;69435;52.670;13.544;2023-08-01T13:13:25;24.80;50.70
21335;DHT22;69435;52.670;13.544;2023-08-01T13:16:11;24.90;51.40
21335;DHT22;69435;52.670;13.544;2023-08-01T13:18:57;24.90;51.80
21335;DHT22;69435;52.670;13.544;2023-08-01T13:21:45;25.10;52.60
21335;DHT22;69435;52.670;13.544;2023-08-01T13:24:30;25.30;51.40
21335;DHT22;69435;52.670;13.544;2023-08-01T13:27:16;25.60;50.60
21335;DHT22;69435;52.670;13.544;2023-08-01T13:30:03;25.80;49.60
21335;DHT22;69435;52.670;13.544;2023-08-01T13:32:49;26.00;50.20
21335;DHT22;69435;52.670;13.544;2023-08-01T13:35:35;26.10;49.00
21335;DHT22;69435;52.670;13.544;2023-08-01T13:38:21;26.20;48.80
21335;DHT22;69435;52.670;13.544;2023-08-01T13:41:07;26.30;49.10
21335;DHT22;69435;52.670;13.544;2023-08-01T13:43:53;26.20;47.70
21335;DHT22;69435;52.670;13.544;2023-08-01T13:46:39;26.10;47.40
21335;DHT22;69435;52.670;13.544;2023-08-01T13:49:25;26.10;48.40
21335;DHT22;69435;52.670;13.544;2023-08-01T13:52:11;26.10;47.20
21335;DHT22;69435;52.670;13.544;2023-08-01T13:54:58;26.20;46.90
21335;DHT22;69435;52.670;13.544;2023-08-01T13:57:44;26.20;46.20
21335;DHT22;69435;52.670;13.544;2023-08-01T14:00:31;26.20;47.30
21335;DHT22;69435;52.670;13.544;2023-08-01T14:03:17;26.30;47.70
21335;DHT22;69435;52.670;13.544;2023-08-01T14:06:08;26.40;47.40
21335;DHT22;69435;52.670;13.544;2023-08-01T14:08:56;26.40;46.90
21335;DHT22;69435;52.670;13.544;2023-08-01T14:11:42;26.40;47.20
21335;DHT22;69435;52.670;13.544;2023-08-01T14:14:28;26.40;46.60
21335;DHT22;69435;52.670;13.544;2023-08-01T14:17:14;26.50;46.60
21335;DHT22;69435;52.670;13.544;2023-08-01T14:20:01;26.50;46.30
21335;DHT22;69435;52.670;13.544;2023-08-01T14:22:49;26.50;45.80
21335;DHT22;69435;52.670;13.544;2023-08-01T14:25:35;26.50;46.00
21335;DHT22;69435;52.670;13.544;2023-08-01T14:28:21;26.40;46.70
21335;DHT22;69435;52.670;13.544;2023-08-01T14:31:07;26.40;47.70
21335;DHT22;69435;52.670;13.544;2023-08-01T14:33:53;26.40;46.60
21335;DHT22;69435;52.670;13.544;2023-08-01T14:36:39;26.30;45.20
21335;DHT22;69435;52.670;13.544;2023-08-01T14:39:25;26.30;45.80
21335;DHT22;69435;52.670;13.544;2023-08-01T14:42:11;26.20;44.20
21335;DHT22;69435;52.670;13.544;2023-08-01T14:44:57;26.10;44.30
21335;DHT22;69435;52.670;13.544;2023-08-01T14:47:43;25.90;44.90
21335;DHT22;69435;52.670;13.544;2023-08-01T14:50:32;25.80;45.90
21335;DHT22;69435;52.670;13.544;2023-08-01T14:53:18;25.70;46.90
21335;DHT22;69435;52.670;13.544;2023-08-01T14:56:04;25.70;47.50
21335;DHT22;69435;52.670;13.544;2023-08-01T14:59:01;25.70;47.50
21335;DHT22;69435;52.670;13.544;2023-08-01T15:01:48;25.90;47.00
21335;DHT22;69435;52.670;13.544;2023-08-01T15:04:34;25.90;45.70
21335;DHT22;69435;52.670;13.544;2023-08-01T15:07:20;26.00;45.80
21335;DHT22;69435;52.670;13.544;2023-08-01T15:10:06;26.00;45.70
21335;DHT22;69435;52.670;13.544;2023-08-01T15:12:52;26.00;44.20
21335;DHT22;69435;52.670;13.544;2023-08-01T15:15:41;26.00;44.70
21335;DHT22;69435;52.670;13.544;2023-08-01T15:18:27;25.90;43.50
21335;DHT22;69435;52.670;13.544;2023-08-01T15:21:13;25.60;45.10
21335;DHT22;69435;52.670;13.544;2023-08-01T15:23:59;25.20;51.50
21335;DHT22;69435;52.670;13.544;2023-08-01T15:26:46;24.40;54.30
21335;DHT22;69435;52.670;13.544;2023-08-01T15:29:32;23.60;53.30
21335;DHT22;69435;52.670;13.544;2023-08-01T15:32:17;22.90;55.10
21335;DHT22;69435;52.670;13.544;2023-08-01T15:35:04;22.40;56.40
21335;DHT22;69435;52.670;13.544;2023-08-01T15:37:50;22.00;57.70
21335;DHT22;69435;52.670;13.544;2023-08-01T15:40:36;21.70;59.10
21335;DHT22;69435;52.670;13.544;2023-08-01T15:43:23;21.50;60.30
21335;DHT22;69435;52.670;13.544;2023-08-01T15:46:11;21.40;60.90
21335;DHT22;69435;52.670;13.544;2023-08-01T15:48:57;21.30;62.10
21335;DHT22;69435;52.670;13.544;2023-08-01T15:51:43;21.30;62.70
21335;DHT22;69435;52.670;13.544;2023-08-01T15:54:29;21.30;63.70
21335;DHT22;69435;52.670;13.544;2023-08-01T15:57:15;21.30;64.10
21335;DHT22;69435;52.670;13.544;2023-08-01T16:00:03;21.40;64.40
21335;DHT22;69435;52.670;13.544;2023-08-01T16:02:49;21.50;64.40
21335;DHT22;69435;52.670;13.544;2023-08-01T16:05:35;21.60;64.90
21335;DHT22;69435;52.670;13.544;2023-08-01T16:08:21;21.70;65.10
21335;DHT22;69435;52.670;13.544;2023-08-01T16:11:07;21.90;65.00
21335;DHT22;69435;52.670;13.544;2023-08-01T16:13:53;22.00;64.30
21335;DHT22;69435;52.670;13.544;2023-08-01T16:16:39;22.20;63.70
21335;DHT22;69435;52.670;13.544;2023-08-01T16:19:25;22.20;63.60
21335;DHT22;69435;52.670;13.544;2023-08-01T16:22:11;22.30;62.00
21335;DHT22;69435;52.670;13.544;2023-08-01T16:24:57;22.30;62.50
21335;DHT22;69435;52.670;13.544;2023-08-01T16:27:43;22.30;62.30
21335;DHT22;69435;52.670;13.544;2023-08-01T16:30:29;22.30;62.00
21335;DHT22;69435;52.670;13.544;2023-08-01T16:33:16;22.20;60.40
21335;DHT22;69435;52.670;13.544;2023-08-01T16:36:03;22.20;59.70
21335;DHT22;69435;52.670;13.544;2023-08-01T16:38:49;22.10;58.90
21335;DHT22;69435;52.670;13.544;2023-08-01T16:41:35;22.10;58.40
21335;DHT22;69435;52.670;13.544;2023-08-01T16:44:22;22.00;58.30
21335;DHT22;69435;52.670;13.544;2023-08-01T16:47:08;21.90;59.00
21335;DHT22;69435;52.670;13.544;2023-08-01T16:49:54;21.90;58.30
21335;DHT22;69435;52.670;13.544;2023-08-01T16:52:41;21.80;58.00
21335;DHT22;69435;52.670;13.544;2023-08-01T16:55:27;21.70;58.60
21335;DHT22;69435;52.670;13.544;2023-08-01T16:58:13;21.70;58.10
21335;DHT22;69435;52.670;13.544;2023-08-01T17:00:59;21.60;57.20
21335;DHT22;69435;52.670;13.544;2023-08-01T17:03:45;21.50;57.70
21335;DHT22;69435;52.670;13.544;2023-08-01T17:06:31;21.50;58.50
21335;DHT22;69435;52.670;13.544;2023-08-01T17:09:17;21.50;57.70
21335;DHT22;69435;52.670;13.544;2023-08-01T17:12:03;21.40;57.20
21335;DHT22;69435;52.670;13.544;2023-08-01T17:14:50;21.40;58.10
21335;DHT22;69435;52.670;13.544;2023-08-01T17:17:36;21.30;58.90